Time;durP1;ratioP1;P1;durP2;ratioP2;P2;SDS_P1;SDS_P2;PMS_P1;PMS_P2;Temp;Humidity;BMP_temperature;BMP_pressure;BME280_temperature;BME280_humidity;BME280_pressure;Samples;Min_cycle;Max_cycle;Signal;HPM_P1;HPM_P2
2023/12/31 00:01:35;;;;;;;4.25;1.65;;;7.90;99.90;;;;;;5053582;28;20032;-71
2023/12/31 00:04:03;;;;;;;2.38;1.45;;;7.90;99.90;;;;;;5053540;28;20033;-71
2023/12/31 00:06:28;;;;;;;1.75;1.05;;;7.80;99.90;;;;;;5053439;28;20086;-71
2023/12/31 00:08:54;;;;;;;2.08;1.50;;;7.80;99.90;;;;;;5053455;28;20532;-71
2023/12/31 00:11:19;;;;;;;2.15;1.63;;;7.70;99.90;;;;;;5053049;28;20041;-71
2023/12/31 00:13:45;;;;;;;2.40;1.90;;;7.70;99.90;;;;;;5053194;28;20079;-71
2023/12/31 00:16:12;;;;;;;7.78;3.50;;;7.60;99.90;;;;;;5053218;28;20029;-71
2023/12/31 00:18:37;;;;;;;5.07;2.80;;;7.60;99.90;;;;;;5053446;28;20067;-71
2023/12/31 00:21:03;;;;;;;2.60;1.55;;;7.50;99.90;;;;;;5053252;28;20057;-71
2023/12/31 00:23:29;;;;;;;3.22;1.77;;;7.50;99.90;;;;;;5053577;28;20029;-71
2023/12/31 00:25:54;;;;;;;4.70;2.08;;;7.50;99.90;;;;;;5053278;28;20029;-71
2023/12/31 00:28:20;;;;;;;3.42;1.50;;;7.30;99.90;;;;;;5053218;28;20434;-71
2023/12/31 00:30:45;;;;;;;4.05;1.55;;;7.30;99.90;;;;;;5053020;28;20063;-71
2023/12/31 00:33:11;;;;;;;3.80;1.55;;;7.20;99.90;;;;;;5053088;28;20036;-70
2023/12/31 00:35:36;;;;;;;2.60;1.65;;;7.10;99.90;;;;;;5053183;28;20029;-71
2023/12/31 00:38:02;;;;;;;3.00;1.50;;;7.00;99.90;;;;;;5053089;28;20027;-71
2023/12/31 00:40:27;;;;;;;3.55;1.60;;;7.00;99.90;;;;;;5053092;28;20021;-71
2023/12/31 00:42:53;;;;;;;3.92;2.00;;;6.90;99.90;;;;;;5053193;28;20033;-71
2023/12/31 00:45:18;;;;;;;4.25;2.20;;;6.90;99.90;;;;;;5053112;28;20386;-71
2023/12/31 00:47:44;;;;;;;4.50;2.08;;;6.90;99.90;;;;;;5052703;28;20106;-70
2023/12/31 00:50:09;;;;;;;4.55;2.45;;;6.80;99.90;;;;;;5053060;28;20025;-70
2023/12/31 00:52:35;;;;;;;7.43;3.50;;;6.80;99.90;;;;;;5053003;28;20086;-71
2023/12/31 00:55:01;;;;;;;8.77;3.88;;;6.90;99.90;;;;;;5052835;28;20029;-71
2023/12/31 00:57:26;;;;;;;7.13;3.42;;;7.00;99.90;;;;;;5052895;28;20521;-71
2023/12/31 00:59:52;;;;;;;7.63;4.25;;;7.00;99.90;;;;;;5053013;28;20036;-71
2023/12/31 01:02:17;;;;;;;5.05;2.85;;;7.10;99.90;;;;;;5052879;28;20057;-70
2023/12/31 01:04:43;;;;;;;5.93;3.00;;;7.20;99.90;;;;;;5052933;28;20447;-70
2023/12/31 01:07:08;;;;;;;5.32;2.60;;;7.20;99.90;;;;;;5052896;28;20033;-71
2023/12/31 01:09:34;;;;;;;4.63;2.90;;;7.20;99.90;;;;;;5052778;28;20025;-71
2023/12/31 01:11:59;;;;;;;8.30;2.60;;;7.30;99.90;;;;;;5054974;28;20037;-71
2023/12/31 01:14:25;;;;;;;4.65;2.22;;;7.30;99.90;;;;;;5056292;28;20033;-71
2023/12/31 01:16:50;;;;;;;4.47;2.67;;;7.30;99.90;;;;;;5056185;28;20387;-71
2023/12/31 01:19:16;;;;;;;4.90;2.78;;;7.30;99.90;;;;;;5056546;28;20112;-71
2023/12/31 01:21:42;;;;;;;6.53;3.13;;;7.40;99.90;;;;;;5056439;28;20078;-70
2023/12/31 01:24:07;;;;;;;6.60;2.90;;;7.50;99.90;;;;;;5056564;28;20029;-71
2023/12/31 01:26:33;;;;;;;3.45;2.55;;;7.50;99.90;;;;;;5055898;28;20031;-71
2023/12/31 01:28:59;;;;;;;4.07;2.65;;;7.50;99.90;;;;;;5056125;28;20035;-71
2023/12/31 01:31:24;;;;;;;3.97;2.47;;;7.50;99.90;;;;;;5056246;28;20033;-71
2023/12/31 01:33:50;;;;;;;4.05;2.65;;;7.40;99.90;;;;;;5056190;28;20025;-71
2023/12/31 01:36:16;;;;;;;5.53;2.83;;;7.40;99.90;;;;;;5055738;28;20380;-70
2023/12/31 01:38:42;;;;;;;5.88;2.75;;;7.30;99.90;;;;;;5056252;28;20495;-71
2023/12/31 01:41:09;;;;;;;6.38;2.70;;;7.30;99.90;;;;;;5055639;28;20029;-71
2023/12/31 01:43:35;;;;;;;4.38;3.00;;;7.40;99.90;;;;;;5056079;28;20029;-71
2023/12/31 01:46:02;;;;;;;6.97;3.10;;;7.40;99.90;;;;;;5056069;28;20028;-71
2023/12/31 01:48:28;;;;;;;6.65;3.17;;;7.40;99.90;;;;;;5056006;28;20025;-71
2023/12/31 01:50:53;;;;;;;4.88;3.17;;;7.30;99.90;;;;;;5055775;28;20510;-71
2023/12/31 01:53:20;;;;;;;4.47;2.90;;;7.30;99.90;;;;;;5055683;28;20029;-71
2023/12/31 01:55:47;;;;;;;6.43;3.10;;;7.30;99.90;;;;;;5055824;28;20047;-71
2023/12/31 01:58:14;;;;;;;4.53;2.90;;;7.40;99.90;;;;;;5055849;28;20025;-71
2023/12/31 02:00:40;;;;;;;4.75;3.00;;;7.40;99.90;;;;;;5055728;28;20025;-71
2023/12/31 02:03:07;;;;;;;3.85;2.78;;;7.50;99.90;;;;;;5055763;28;20075;-71
2023/12/31 02:05:32;;;;;;;15.05;3.30;;;7.40;99.90;;;;;;5055633;28;20025;-71
2023/12/31 02:07:58;;;;;;;5.95;3.38;;;7.50;99.90;;;;;;5055593;28;20398;-71
2023/12/31 02:10:24;;;;;;;9.50;3.58;;;7.50;99.90;;;;;;5055554;28;20037;-71
2023/12/31 02:12:50;;;;;;;4.35;3.17;;;7.60;99.90;;;;;;5055173;28;20522;-70
2023/12/31 02:15:30;;;;;;;6.80;3.10;;;7.60;99.90;;;;;;5055389;28;20386;-71
2023/12/31 02:17:55;;;;;;;6.20;3.00;;;7.70;99.90;;;;;;5055004;28;20025;-71
2023/12/31 02:20:21;;;;;;;5.32;2.50;;;7.80;99.90;;;;;;5055355;28;20032;-70
2023/12/31 02:22:47;;;;;;;4.47;2.80;;;7.70;99.90;;;;;;5055029;28;20119;-71
2023/12/31 02:25:17;;;;;;;4.00;3.33;;;7.70;99.90;;;;;;5054992;28;20025;-70
2023/12/31 02:27:43;;;;;;;4.25;2.60;;;7.80;99.90;;;;;;5054845;28;20130;-71
2023/12/31 02:30:09;;;;;;;6.35;2.83;;;7.90;99.90;;;;;;5055267;28;20025;-71
2023/12/31 02:32:35;;;;;;;3.42;2.75;;;7.90;99.90;;;;;;5054868;28;20475;-71
2023/12/31 02:35:01;;;;;;;4.15;2.50;;;7.90;99.90;;;;;;5055078;28;20112;-71
2023/12/31 02:37:26;;;;;;;7.65;2.40;;;7.90;99.90;;;;;;5055035;28;20083;-71
2023/12/31 02:39:52;;;;;;;5.13;2.70;;;7.80;99.90;;;;;;5054603;28;20119;-70
2023/12/31 02:42:18;;;;;;;4.05;3.00;;;7.80;99.90;;;;;;5054924;28;20450;-71
2023/12/31 02:44:43;;;;;;;4.85;2.85;;;7.80;99.90;;;;;;5054842;28;20536;-71
2023/12/31 02:47:11;;;;;;;4.50;3.08;;;7.70;99.90;;;;;;5055107;28;20021;-71
2023/12/31 02:49:36;;;;;;;4.03;2.60;;;7.70;99.90;;;;;;5054871;28;20023;-71
2023/12/31 02:52:02;;;;;;;3.70;2.65;;;7.60;99.90;;;;;;5054736;28;20029;-71
2023/12/31 02:54:27;;;;;;;3.75;2.88;;;7.60;99.90;;;;;;5054418;28;20029;-71
2023/12/31 02:56:53;;;;;;;4.53;2.55;;;7.70;99.90;;;;;;5054675;28;20458;-71
2023/12/31 02:59:18;;;;;;;3.33;2.70;;;7.60;99.90;;;;;;5054709;28;20028;-70
2023/12/31 03:01:44;;;;;;;5.22;3.00;;;7.60;99.90;;;;;;5054522;28;20036;-70
2023/12/31 03:04:09;;;;;;;4.05;2.70;;;7.60;99.90;;;;;;5054560;28;20082;-71
2023/12/31 03:06:38;;;;;;;3.53;2.55;;;7.60;99.90;;;;;;5054401;28;20457;-71
2023/12/31 03:09:04;;;;;;;3.33;2.42;;;7.60;99.90;;;;;;5054498;28;20106;-71
2023/12/31 03:11:29;;;;;;;2.38;2.17;;;7.70;99.90;;;;;;5054188;28;20449;-71
2023/12/31 03:13:55;;;;;;;2.53;2.33;;;7.70;99.90;;;;;;5054076;28;20075;-71
2023/12/31 03:16:20;;;;;;;3.13;2.40;;;7.80;99.90;;;;;;5054376;28;20025;-71
2023/12/31 03:18:46;;;;;;;3.35;2.40;;;7.70;99.90;;;;;;5053929;28;20017;-71
2023/12/31 03:21:19;;;;;;;4.10;2.30;;;7.70;99.90;;;;;;5054278;28;20021;-70
2023/12/31 03:23:44;;;;;;;5.53;2.63;;;7.70;99.90;;;;;;5054169;28;20075;-70
2023/12/31 03:26:10;;;;;;;4.40;2.45;;;7.70;99.90;;;;;;5054187;28;20448;-71
2023/12/31 03:28:36;;;;;;;4.68;2.33;;;7.70;99.90;;;;;;5053896;28;20033;-71
2023/12/31 03:31:03;;;;;;;5.80;2.35;;;7.70;99.90;;;;;;5054099;28;20032;-71
2023/12/31 03:33:29;;;;;;;3.28;1.98;;;7.70;99.90;;;;;;5053011;28;20033;-71
2023/12/31 03:35:54;;;;;;;3.63;2.00;;;7.70;99.90;;;;;;5053868;28;20032;-71
2023/12/31 03:38:20;;;;;;;3.42;2.17;;;7.60;99.90;;;;;;5054002;28;20018;-71
2023/12/31 03:40:45;;;;;;;3.53;2.50;;;7.70;99.90;;;;;;5053955;28;20025;-71
2023/12/31 03:43:11;;;;;;;1.95;1.63;;;7.80;99.90;;;;;;5053974;28;20028;-71
2023/12/31 03:45:36;;;;;;;2.30;1.92;;;8.00;99.90;;;;;;5053432;28;20029;-71
2023/12/31 03:48:02;;;;;;;3.97;2.10;;;8.10;99.90;;;;;;5053527;28;20041;-71
2023/12/31 03:50:28;;;;;;;4.15;2.40;;;8.20;99.90;;;;;;5053572;28;20029;-71
2023/12/31 03:52:53;;;;;;;3.72;1.98;;;8.30;99.90;;;;;;5053501;28;20037;-71
2023/12/31 03:55:19;;;;;;;3.30;1.90;;;8.30;99.90;;;;;;5053687;28;20025;-71
2023/12/31 03:57:44;;;;;;;2.55;2.00;;;8.30;99.90;;;;;;5053636;28;20107;-71
2023/12/31 04:00:10;;;;;;;2.92;2.15;;;8.30;99.90;;;;;;5053622;28;20025;-71
2023/12/31 04:02:36;;;;;;;3.30;1.90;;;8.30;99.90;;;;;;5053465;28;20048;-71
2023/12/31 04:05:04;;;;;;;2.58;1.90;;;8.30;99.90;;;;;;5053506;28;20033;-71
2023/12/31 04:07:30;;;;;;;4.97;2.10;;;8.40;99.90;;;;;;5053565;28;20037;-71
2023/12/31 04:09:55;;;;;;;2.90;2.05;;;8.40;99.90;;;;;;5053012;28;20078;-71
2023/12/31 04:12:21;;;;;;;4.72;2.05;;;8.40;99.90;;;;;;5052980;28;20045;-71
2023/12/31 04:14:46;;;;;;;3.35;2.30;;;8.30;99.90;;;;;;5053474;28;20044;-70
2023/12/31 04:17:12;;;;;;;2.13;1.83;;;8.40;99.90;;;;;;5053390;28;20032;-71
2023/12/31 04:19:38;;;;;;;6.20;2.15;;;8.30;99.90;;;;;;5053007;28;20479;-71
2023/12/31 04:22:04;;;;;;;2.33;2.05;;;8.30;99.90;;;;;;5053322;28;20034;-71
2023/12/31 04:24:29;;;;;;;3.15;2.33;;;8.30;99.90;;;;;;5053317;28;20025;-71
2023/12/31 04:26:57;;;;;;;3.65;2.20;;;8.40;99.90;;;;;;5053426;28;20017;-71
2023/12/31 04:29:22;;;;;;;3.40;2.22;;;8.40;99.90;;;;;;5053224;28;20107;-71
2023/12/31 04:31:48;;;;;;;3.72;2.50;;;8.40;99.90;;;;;;5053250;28;20432;-70
2023/12/31 04:34:14;;;;;;;3.30;2.55;;;8.40;99.90;;;;;;5053094;28;20025;-71
2023/12/31 04:36:43;;;;;;;3.75;2.28;;;8.30;99.90;;;;;;5053556;28;20387;-71
2023/12/31 04:39:09;;;;;;;5.57;2.30;;;8.40;99.90;;;;;;5053500;28;20032;-71
2023/12/31 04:41:35;;;;;;;4.15;2.33;;;8.40;99.90;;;;;;5052987;28;20363;-70
2023/12/31 04:44:01;;;;;;;4.28;2.40;;;8.30;99.90;;;;;;5052945;28;20063;-71
2023/12/31 04:46:26;;;;;;;3.70;2.28;;;8.30;99.90;;;;;;5056273;28;20033;-71
2023/12/31 04:48:52;;;;;;;3.58;2.22;;;8.50;99.90;;;;;;5057129;28;20029;-71
2023/12/31 04:54:02;;;;;;;5.28;2.45;;;8.50;99.90;;;;;;5070719;28;20375;-70
2023/12/31 04:56:28;;;;;;;2.63;2.35;;;8.60;99.90;;;;;;5070622;28;20071;-70
2023/12/31 04:58:54;;;;;;;3.05;2.20;;;8.60;99.90;;;;;;5070793;28;20024;-70
2023/12/31 05:01:20;;;;;;;4.30;2.10;;;8.50;99.90;;;;;;5070710;28;20051;-70
2023/12/31 05:03:47;;;;;;;3.15;2.13;;;8.60;99.90;;;;;;5070184;28;20029;-69
2023/12/31 05:06:13;;;;;;;4.40;2.00;;;8.60;99.90;;;;;;5070693;28;20494;-70
2023/12/31 05:08:44;;;;;;;6.40;2.30;;;8.60;99.90;;;;;;5070504;28;20025;-72
2023/12/31 05:11:11;;;;;;;3.65;2.13;;;8.70;99.90;;;;;;5070241;28;20413;-70
2023/12/31 05:13:38;;;;;;;3.38;2.00;;;8.70;99.90;;;;;;5070116;28;20036;-70
2023/12/31 05:16:04;;;;;;;4.13;2.10;;;8.70;99.90;;;;;;5070392;28;20158;-70
2023/12/31 05:18:29;;;;;;;2.90;2.30;;;8.70;99.90;;;;;;5070367;28;20024;-70
2023/12/31 05:20:55;;;;;;;3.95;2.45;;;8.70;99.90;;;;;;5070129;28;20025;-70
2023/12/31 05:23:21;;;;;;;3.33;2.28;;;8.70;99.90;;;;;;5069927;28;20486;-69
2023/12/31 05:25:46;;;;;;;4.25;2.28;;;8.70;99.90;;;;;;5070094;28;20059;-70
2023/12/31 05:28:12;;;;;;;4.53;2.15;;;8.70;99.90;;;;;;5070205;28;20033;-70
2023/12/31 05:30:41;;;;;;;4.57;2.60;;;8.70;99.90;;;;;;5070052;28;20029;-70
2023/12/31 05:33:07;;;;;;;5.95;2.20;;;8.70;99.90;;;;;;5069773;28;20509;-70
2023/12/31 05:35:32;;;;;;;5.07;2.10;;;8.70;99.90;;;;;;5069797;28;20052;-70
2023/12/31 05:37:58;;;;;;;4.80;2.08;;;8.70;99.90;;;;;;5069814;28;20478;-70
2023/12/31 05:40:23;;;;;;;3.45;2.00;;;8.80;99.90;;;;;;5069866;28;20083;-70
2023/12/31 05:42:49;;;;;;;6.07;2.17;;;8.80;99.90;;;;;;5069834;28;20028;-70
2023/12/31 05:45:14;;;;;;;3.97;2.10;;;8.80;99.90;;;;;;5069869;28;20068;-69
2023/12/31 05:47:40;;;;;;;3.53;2.10;;;8.80;99.90;;;;;;5069281;28;20117;-70
2023/12/31 05:50:05;;;;;;;4.18;2.20;;;8.80;99.90;;;;;;5069593;28;20393;-70
2023/12/31 05:52:31;;;;;;;4.10;2.25;;;8.90;99.90;;;;;;5069160;28;20052;-69
2023/12/31 05:54:57;;;;;;;3.05;2.00;;;8.90;99.90;;;;;;5069448;28;20020;-69
2023/12/31 05:57:22;;;;;;;2.42;1.98;;;9.00;99.90;;;;;;5069482;28;20521;-69
2023/12/31 05:59:48;;;;;;;2.75;1.90;;;9.00;99.90;;;;;;5069544;28;20028;-69
2023/12/31 06:02:13;;;;;;;5.55;2.20;;;9.00;99.90;;;;;;5069064;28;20051;-70
2023/12/31 06:04:39;;;;;;;3.00;2.00;;;9.00;99.90;;;;;;5060188;28;20056;-70
2023/12/31 06:07:04;;;;;;;4.10;2.15;;;9.00;98.60;;;;;;5055914;28;20021;-69
2023/12/31 06:09:30;;;;;;;4.88;2.10;;;9.00;99.90;;;;;;5055836;28;20056;-70
2023/12/31 06:11:55;;;;;;;2.85;1.90;;;8.90;99.90;;;;;;5055973;28;20033;-70
2023/12/31 06:14:21;;;;;;;2.60;1.80;;;8.90;99.90;;;;;;5056150;28;20029;-70
2023/12/31 06:16:46;;;;;;;3.40;2.20;;;8.90;99.90;;;;;;5055623;28;20130;-70
2023/12/31 06:19:12;;;;;;;2.95;2.15;;;8.90;99.90;;;;;;5055998;28;20021;-71
2023/12/31 06:21:37;;;;;;;3.53;2.10;;;8.90;99.90;;;;;;5055423;28;20025;-70
2023/12/31 06:24:03;;;;;;;3.88;1.90;;;8.80;99.90;;;;;;5055769;28;20056;-70
2023/12/31 06:26:29;;;;;;;5.72;1.95;;;8.80;99.90;;;;;;5055339;28;20403;-70
2023/12/31 06:28:54;;;;;;;4.13;1.70;;;8.70;99.90;;;;;;5055790;28;20040;-70
2023/12/31 06:31:20;;;;;;;4.07;1.90;;;8.60;99.90;;;;;;5055698;28;20049;-69
2023/12/31 06:33:45;;;;;;;5.70;2.55;;;8.60;99.90;;;;;;5055278;28;20037;-69
2023/12/31 06:36:11;;;;;;;3.72;2.00;;;8.60;99.90;;;;;;5055792;28;20025;-70
2023/12/31 06:38:37;;;;;;;5.30;2.22;;;8.50;99.90;;;;;;5055464;28;20021;-70
2023/12/31 06:41:07;;;;;;;3.10;2.45;;;8.50;99.90;;;;;;5055322;28;20021;-70
2023/12/31 06:43:34;;;;;;;2.20;1.70;;;8.60;99.90;;;;;;5054918;28;20021;-70
2023/12/31 06:46:00;;;;;;;1.95;1.50;;;8.70;99.90;;;;;;5054976;28;20035;-70
2023/12/31 06:48:25;;;;;;;4.03;2.05;;;8.90;97.10;;;;;;5055414;28;20021;-70
2023/12/31 06:50:51;;;;;;;3.08;1.60;;;8.90;96.70;;;;;;5055461;28;20029;-69
2023/12/31 06:53:16;;;;;;;3.20;1.90;;;9.10;92.00;;;;;;5054871;28;20049;-69
2023/12/31 06:55:42;;;;;;;2.78;2.13;;;9.20;90.00;;;;;;5055442;28;20025;-70
2023/12/31 06:58:08;;;;;;;2.97;1.73;;;9.30;84.70;;;;;;5054742;28;20028;-70
2023/12/31 07:00:35;;;;;;;1.83;1.30;;;9.20;82.90;;;;;;5055151;28;20078;-70
2023/12/31 07:03:01;;;;;;;4.38;1.70;;;9.40;67.20;;;;;;5055084;28;20045;-70
2023/12/31 07:05:26;;;;;;;2.75;1.83;;;9.50;63.90;;;;;;5054898;28;20493;-70
2023/12/31 07:07:52;;;;;;;2.50;1.90;;;9.70;82.10;;;;;;5054964;28;20044;-69
2023/12/31 07:10:18;;;;;;;4.57;2.22;;;9.80;75.90;;;;;;5054847;28;20025;-69
2023/12/31 07:12:44;;;;;;;1.80;1.58;;;9.80;75.60;;;;;;5054839;28;20123;-70
2023/12/31 07:15:10;;;;;;;3.58;1.95;;;9.90;80.00;;;;;;5054246;28;20021;-70
2023/12/31 07:17:35;;;;;;;2.95;2.30;;;9.90;36.90;;;;;;5054446;28;20033;-70
2023/12/31 07:20:04;;;;;;;2.58;1.90;;;9.80;37.50;;;;;;5054794;28;20067;-70
2023/12/31 07:22:29;;;;;;;3.63;2.08;;;9.80;34.50;;;;;;5054344;28;20391;-70
2023/12/31 07:24:55;;;;;;;2.22;1.73;;;9.80;40.20;;;;;;5054639;28;20036;-70
2023/12/31 07:27:20;;;;;;;2.35;1.95;;;9.80;43.90;;;;;;5054632;28;20039;-70
2023/12/31 07:29:46;;;;;;;2.10;1.90;;;9.80;45.60;;;;;;5054479;28;20029;-70
2023/12/31 07:32:11;;;;;;;3.92;2.08;;;9.80;29.30;;;;;;5054484;28;20052;-70
2023/12/31 07:34:37;;;;;;;3.15;2.00;;;9.80;29.90;;;;;;5054118;28;20025;-70
2023/12/31 07:37:03;;;;;;;4.65;2.15;;;9.80;28.80;;;;;;5054426;28;20040;-70
2023/12/31 07:39:28;;;;;;;4.10;2.05;;;9.80;32.60;;;;;;5054405;28;20036;-70
2023/12/31 07:41:54;;;;;;;2.53;1.90;;;9.70;32.20;;;;;;5054258;28;20025;-70
2023/12/31 07:44:19;;;;;;;2.78;1.83;;;9.70;37.60;;;;;;5053988;28;20123;-70
2023/12/31 07:46:45;;;;;;;2.72;1.95;;;9.70;31.40;;;;;;5054252;28;20025;-70
2023/12/31 07:49:10;;;;;;;2.88;1.90;;;9.90;26.90;;;;;;5054153;28;20074;-71
2023/12/31 07:51:36;;;;;;;4.50;2.28;;;9.90;27.60;;;;;;5053764;28;20071;-69
2023/12/31 07:54:01;;;;;;;3.40;2.13;;;9.90;27.40;;;;;;5053847;28;20505;-70
2023/12/31 07:56:27;;;;;;;3.33;2.20;;;10.00;24.80;;;;;;5053870;28;20025;-70
2023/12/31 07:58:52;;;;;;;5.00;2.40;;;9.90;26.30;;;;;;5053910;28;20135;-70
2023/12/31 08:01:18;;;;;;;4.63;2.67;;;10.00;26.90;;;;;;5054000;28;20086;-70
2023/12/31 08:03:45;;;;;;;3.40;2.33;;;10.00;24.80;;;;;;5054004;28;20037;-70
2023/12/31 08:06:10;;;;;;;2.90;2.10;;;9.90;27.70;;;;;;5053711;28;20029;-70
2023/12/31 08:08:36;;;;;;;2.60;2.40;;;10.00;35.40;;;;;;5053829;28;20040;-70
2023/12/31 08:11:02;;;;;;;3.05;2.28;;;9.90;38.20;;;;;;5053789;28;20119;-70
2023/12/31 08:13:28;;;;;;;3.05;2.10;;;10.00;33.60;;;;;;5053391;28;20032;-70
2023/12/31 08:15:54;;;;;;;4.35;2.58;;;10.10;26.00;;;;;;5053795;28;20029;-70
2023/12/31 08:18:20;;;;;;;3.88;2.60;;;10.00;27.00;;;;;;5053732;28;20033;-69
2023/12/31 08:20:46;;;;;;;4.97;2.42;;;10.00;28.60;;;;;;5053361;28;20111;-70
2023/12/31 08:23:11;;;;;;;3.50;2.42;;;10.00;29.00;;;;;;5053835;28;20097;-70
2023/12/31 08:25:37;;;;;;;4.28;2.80;;;10.00;28.70;;;;;;5053621;28;20395;-70
2023/12/31 08:28:03;;;;;;;3.03;2.35;;;10.00;29.00;;;;;;5053344;28;20033;-69
2023/12/31 08:30:28;;;;;;;4.97;2.63;;;10.10;28.60;;;;;;5053502;28;20073;-70
2023/12/31 08:32:54;;;;;;;4.45;2.65;;;10.00;29.10;;;;;;5053317;28;20079;-70
2023/12/31 08:35:21;;;;;;;3.38;2.67;;;10.00;29.90;;;;;;5053485;28;20033;-70
2023/12/31 08:37:48;;;;;;;4.57;3.17;;;9.90;33.40;;;;;;5053379;28;20597;-70
2023/12/31 08:40:14;;;;;;;3.95;2.70;;;9.90;32.20;;;;;;5053558;28;20051;-70
2023/12/31 08:42:40;;;;;;;4.53;2.75;;;9.90;33.20;;;;;;5052927;28;20112;-70
2023/12/31 08:45:10;;;;;;;4.35;3.03;;;9.90;34.80;;;;;;5053282;28;20109;-70
2023/12/31 08:47:36;;;;;;;6.15;2.83;;;10.00;37.00;;;;;;5052903;28;20049;-70
2023/12/31 08:50:08;;;;;;;3.60;2.83;;;10.00;35.50;;;;;;5053369;28;20416;-70
2023/12/31 08:52:34;;;;;;;3.08;2.33;;;10.00;32.20;;;;;;5053053;28;20081;-70
2023/12/31 08:55:00;;;;;;;3.38;2.58;;;10.00;30.50;;;;;;5052950;28;20032;-70
2023/12/31 08:57:25;;;;;;;5.15;3.28;;;10.10;40.70;;;;;;5053068;28;20029;-70
2023/12/31 08:59:51;;;;;;;4.03;2.78;;;10.00;76.70;;;;;;5053233;28;20060;-70
2023/12/31 09:02:16;;;;;;;4.72;2.72;;;10.10;73.40;;;;;;5053252;28;20059;-70
2023/12/31 09:04:42;;;;;;;5.47;2.92;;;10.20;71.10;;;;;;5052846;28;20017;-70
2023/12/31 09:07:07;;;;;;;5.10;3.00;;;10.30;81.40;;;;;;5033153;28;20071;-70
2023/12/31 09:09:33;;;;;;;5.25;2.97;;;10.30;81.10;;;;;;5033188;28;20124;-70
2023/12/31 09:11:59;;;;;;;4.13;2.70;;;10.20;81.50;;;;;;5032780;28;20056;-70
2023/12/31 09:14:24;;;;;;;4.57;2.80;;;10.20;83.40;;;;;;5032998;28;20025;-70
2023/12/31 09:16:50;;;;;;;4.75;3.10;;;10.20;83.80;;;;;;5033092;28;20025;-70
2023/12/31 09:19:16;;;;;;;4.45;2.90;;;10.10;83.50;;;;;;5033235;28;20017;-70
2023/12/31 09:21:41;;;;;;;3.85;2.97;;;10.10;84.80;;;;;;5033082;28;20076;-70
2023/12/31 09:24:07;;;;;;;6.78;3.00;;;10.10;85.70;;;;;;5033062;28;20478;-70
2023/12/31 09:26:32;;;;;;;3.97;2.63;;;10.10;86.70;;;;;;5033059;28;20129;-70
2023/12/31 09:28:58;;;;;;;6.18;3.17;;;10.00;85.00;;;;;;5032903;28;20044;-71
2023/12/31 09:31:25;;;;;;;6.00;3.00;;;10.00;88.90;;;;;;5032604;28;20395;-70
2023/12/31 09:33:51;;;;;;;3.92;3.03;;;10.00;89.70;;;;;;5032760;28;20025;-70
2023/12/31 09:36:16;;;;;;;5.28;3.08;;;10.00;86.90;;;;;;5033064;28;20434;-70
2023/12/31 09:38:42;;;;;;;4.82;3.15;;;10.10;91.70;;;;;;5033241;28;20072;-70
2023/12/31 09:41:08;;;;;;;5.15;3.17;;;10.10;88.80;;;;;;5036505;28;20030;-70
2023/12/31 09:43:34;;;;;;;6.97;3.40;;;10.10;91.00;;;;;;5036262;28;20427;-70
2023/12/31 09:46:02;;;;;;;3.78;2.72;;;10.20;89.40;;;;;;5036667;28;20032;-70
2023/12/31 09:48:29;;;;;;;4.80;3.08;;;10.30;87.60;;;;;;5036242;28;20021;-70
2023/12/31 09:50:55;;;;;;;4.93;2.78;;;10.30;86.30;;;;;;5036369;28;20037;-70
2023/12/31 09:53:22;;;;;;;5.47;2.85;;;10.30;85.20;;;;;;5035932;28;20127;-70
2023/12/31 09:55:50;;;;;;;4.50;2.90;;;10.30;86.90;;;;;;5036423;28;20471;-69
2023/12/31 09:58:18;;;;;;;6.45;3.00;;;10.30;87.30;;;;;;5036546;28;20395;-70
2023/12/31 10:00:43;;;;;;;5.45;2.75;;;10.30;87.30;;;;;;5036409;28;20467;-70
2023/12/31 10:03:10;;;;;;;4.50;2.70;;;10.40;88.90;;;;;;5036078;28;20037;-70
2023/12/31 10:05:38;;;;;;;2.92;2.53;;;10.40;86.00;;;;;;5036293;28;20037;-70
2023/12/31 10:08:05;;;;;;;3.13;2.45;;;10.60;86.30;;;;;;5035019;28;20550;-70
2023/12/31 10:10:34;;;;;;;5.63;2.85;;;10.70;80.00;;;;;;5035680;28;20030;-70
2023/12/31 10:13:00;;;;;;;5.43;2.60;;;10.80;78.40;;;;;;5035993;28;20442;-70
2023/12/31 10:15:26;;;;;;;4.85;2.90;;;10.80;79.10;;;;;;5036039;28;20021;-70
2023/12/31 10:17:51;;;;;;;3.95;3.08;;;10.80;84.10;;;;;;5035920;28;20022;-70
2023/12/31 10:20:19;;;;;;;5.68;3.10;;;10.80;83.00;;;;;;5036052;28;20083;-71
2023/12/31 10:22:45;;;;;;;4.60;3.10;;;10.80;82.10;;;;;;5035903;28;20148;-70
2023/12/31 10:25:15;;;;;;;3.88;2.83;;;10.80;80.30;;;;;;5035813;28;20051;-70
2023/12/31 10:27:48;;;;;;;5.10;3.30;;;10.90;82.40;;;;;;5035769;28;20116;-70
2023/12/31 10:30:14;;;;;;;4.43;3.05;;;10.90;83.00;;;;;;5035855;28;20030;-70
2023/12/31 10:32:39;;;;;;;3.03;2.67;;;11.00;82.70;;;;;;5035221;28;20144;-70
2023/12/31 10:35:06;;;;;;;4.20;3.05;;;11.00;80.10;;;;;;5035675;28;20110;-70
2023/12/31 10:37:31;;;;;;;5.18;2.92;;;11.10;67.20;;;;;;5035678;28;20458;-70
2023/12/31 10:39:57;;;;;;;4.22;3.17;;;11.10;68.10;;;;;;5035499;28;20029;-70
2023/12/31 10:42:23;;;;;;;4.97;2.95;;;11.10;66.40;;;;;;5035657;28;20033;-70
2023/12/31 10:44:53;;;;;;;4.30;2.92;;;11.20;58.80;;;;;;5035599;28;20105;-70
2023/12/31 10:47:19;;;;;;;4.45;3.30;;;11.30;65.30;;;;;;5035474;28;20049;-70
2023/12/31 10:49:46;;;;;;;5.28;3.30;;;11.40;71.50;;;;;;5034944;28;20065;-70
2023/12/31 10:52:14;;;;;;;4.90;3.50;;;11.40;67.90;;;;;;5035066;28;20099;-70
2023/12/31 10:54:45;;;;;;;6.38;3.47;;;11.50;68.70;;;;;;5035349;28;20432;-70
2023/12/31 10:57:11;;;;;;;8.07;3.60;;;11.50;70.30;;;;;;5035288;28;20384;-70
2023/12/31 10:59:39;;;;;;;5.50;3.40;;;11.60;74.00;;;;;;5035316;28;20041;-70
2023/12/31 11:02:05;;;;;;;6.18;3.55;;;11.60;72.10;;;;;;5034780;28;20502;-70
2023/12/31 11:04:31;;;;;;;6.25;3.33;;;12.20;71.70;;;;;;5035140;28;20034;-70
2023/12/31 11:06:57;;;;;;;4.47;3.28;;;12.60;74.80;;;;;;5035158;28;20021;-70
2023/12/31 11:09:25;;;;;;;4.65;3.15;;;13.00;63.50;;;;;;5035200;28;20112;-70
2023/12/31 11:11:51;;;;;;;5.45;3.40;;;13.00;70.00;;;;;;5035040;28;20060;-70
2023/12/31 11:14:24;;;;;;;5.32;3.25;;;12.80;67.40;;;;;;5034990;28;20073;-70
2023/12/31 11:17:19;;;;;;;3.85;3.00;;;12.60;68.70;;;;;;5034811;28;20392;-70
2023/12/31 11:20:12;;;;;;;4.40;3.50;;;12.70;62.40;;;;;;5034749;28;20040;-72
2023/12/31 11:22:59;;;;;;;4.70;2.97;;;12.90;29.20;;;;;;5034805;28;20033;-71
2023/12/31 11:25:26;;;;;;;5.50;3.35;;;12.70;28.00;;;;;;5034826;28;20033;-71
2023/12/31 11:27:54;;;;;;;3.58;2.78;;;12.40;27.70;;;;;;5034793;28;20395;-71
2023/12/31 11:31:02;;;;;;;3.75;3.03;;;12.20;22.40;;;;;;5034476;28;20025;-69
2023/12/31 11:33:33;;;;;;;4.65;2.90;;;12.10;21.50;;;;;;5034252;28;20176;-73
2023/12/31 11:36:05;;;;;;;4.47;2.85;;;12.00;25.60;;;;;;5034098;28;20021;-72
2023/12/31 11:38:56;;;;;;;3.72;3.30;;;12.00;16.10;;;;;;5034060;28;20040;-71
2023/12/31 11:41:24;;;;;;;3.97;3.05;;;12.00;17.00;;;;;;5034485;28;20037;-70
2023/12/31 11:43:51;;;;;;;4.97;3.05;;;11.90;14.70;;;;;;5034365;28;20029;-70
2023/12/31 11:46:39;;;;;;;5.68;3.05;;;11.90;11.70;;;;;;5034379;28;20017;-70
2023/12/31 11:49:10;;;;;;;3.53;2.70;;;12.00;8.10;;;;;;5033768;28;20030;-70
2023/12/31 11:51:55;;;;;;;3.20;2.50;;;12.00;5.30;;;;;;5034064;28;20029;-69
2023/12/31 11:54:23;;;;;;;3.22;2.78;;;11.90;1.00;;;;;;5034222;28;20071;-69
2023/12/31 11:56:52;;;;;;;3.67;2.80;;;11.80;1.40;;;;;;5033634;28;20376;-70
2023/12/31 11:59:18;;;;;;;4.10;2.88;;;11.70;5.70;;;;;;5034082;28;20017;-70
2023/12/31 12:01:44;;;;;;;5.85;2.95;;;11.70;7.90;;;;;;5033590;28;20025;-71
2023/12/31 12:04:11;;;;;;;4.78;2.92;;;11.70;1.40;;;;;;5034028;28;20092;-70
2023/12/31 12:06:37;;;;;;;2.83;2.45;;;11.70;1.00;;;;;;5033921;28;20026;-70
2023/12/31 12:09:03;;;;;;;6.43;3.10;;;11.70;1.00;;;;;;5033658;28;20120;-70
2023/12/31 12:11:28;;;;;;;4.97;2.97;;;11.60;11.30;;;;;;5033475;28;20033;-70
2023/12/31 12:13:54;;;;;;;3.30;2.58;;;11.50;6.80;;;;;;5033786;28;20030;-69
2023/12/31 12:16:20;;;;;;;3.20;2.60;;;11.40;3.50;;;;;;5033834;28;20025;-70
2023/12/31 12:18:45;;;;;;;3.58;2.38;;;11.40;1.90;;;;;;5033379;28;20479;-71
2023/12/31 12:21:11;;;;;;;4.25;2.10;;;11.40;1.70;;;;;;5033222;28;20049;-70
2023/12/31 12:23:37;;;;;;;7.00;3.00;;;11.40;3.60;;;;;;5033685;28;20033;-70
2023/12/31 12:26:03;;;;;;;4.07;2.60;;;11.30;7.00;;;;;;5033497;28;20479;-70
2023/12/31 12:28:30;;;;;;;5.32;2.85;;;11.30;9.30;;;;;;5033703;28;20025;-70
2023/12/31 12:30:57;;;;;;;3.85;2.50;;;11.30;3.10;;;;;;5033623;28;20124;-71
2023/12/31 12:33:23;;;;;;;2.65;2.00;;;11.20;3.40;;;;;;5033108;28;20021;-71
2023/12/31 12:35:49;;;;;;;3.28;2.15;;;11.30;9.30;;;;;;5033299;28;20029;-70
2023/12/31 12:38:15;;;;;;;3.03;1.55;;;11.20;1.00;;;;;;5033464;28;20048;-70
2023/12/31 12:40:41;;;;;;;1.58;1.20;;;11.20;1.00;;;;;;5033401;28;20030;-69
2023/12/31 12:43:07;;;;;;;1.58;1.20;;;11.20;1.30;;;;;;5033170;28;20095;-69
2023/12/31 12:45:32;;;;;;;2.00;0.80;;;11.10;1.00;;;;;;5033381;28;20025;-69
2023/12/31 12:47:59;;;;;;;0.98;0.70;;;11.00;1.00;;;;;;5033443;28;20037;-68
2023/12/31 12:50:26;;;;;;;1.95;0.95;;;11.00;1.00;;;;;;5033276;28;20037;-68
2023/12/31 12:52:53;;;;;;;2.72;1.48;;;11.00;1.00;;;;;;5033156;28;20084;-69
2023/12/31 12:55:18;;;;;;;3.03;1.45;;;11.00;1.00;;;;;;5033374;28;20021;-69